SWA3278 KLAS-KLAX
Flight info
| Callsign | SWA3278 |
|---|---|
| Flight time | 0h 38m |
| Altitude | 26000 |
| Route | RADYR2 BLAQQ SHTNR ANJLL4 |
| Aircraft | B738/M-SADE2E3GIJ4RWZ/LB1D1 |
Departure
| Time | 2026-05-07 19:53 |
|---|---|
| Airport | Harry Reid International Airport (KLAS) |
Arrival
| Time | 2026-05-07 20:31 |
|---|---|
| Airport | Los Angeles International Airport (KLAX) |
| Time | Latitude | Longitude | Altitude | Speed | Heading |
|---|---|---|---|---|---|
| 2026-05-07 19:35 | 36.08090 | -115.14591 | 2187 ft | 0 kts | 253° |
| 2026-05-07 19:41 | 36.08093 | -115.14578 | 2191 ft | 2 kts | 253° |
| 2026-05-07 19:41 | 36.08098 | -115.14559 | 2189 ft | 2 kts | 251° |
| 2026-05-07 19:41 | 36.08104 | -115.14540 | 2189 ft | 2 kts | 233° |
| 2026-05-07 19:42 | 36.08117 | -115.14528 | 2190 ft | 2 kts | 202° |
| 2026-05-07 19:42 | 36.08133 | -115.14524 | 2187 ft | 2 kts | 167° |
| 2026-05-07 19:42 | 36.08141 | -115.14527 | 2189 ft | 0 kts | 158° |
| 2026-05-07 19:45 | 36.08117 | -115.14513 | 2188 ft | 8 kts | 155° |
| 2026-05-07 19:45 | 36.08029 | -115.14484 | 2189 ft | 16 kts | 178° |
| 2026-05-07 19:45 | 36.07911 | -115.14482 | 2187 ft | 14 kts | 179° |
| 2026-05-07 19:46 | 36.07838 | -115.14452 | 2187 ft | 0 kts | 155° |
| 2026-05-07 19:46 | 36.07834 | -115.14440 | 2187 ft | 2 kts | 108° |
| 2026-05-07 19:47 | 36.07831 | -115.14408 | 2187 ft | 8 kts | 95° |
| 2026-05-07 19:47 | 36.07828 | -115.14273 | 2187 ft | 23 kts | 90° |
| 2026-05-07 19:47 | 36.07828 | -115.14042 | 2187 ft | 28 kts | 90° |
| 2026-05-07 19:47 | 36.07828 | -115.13805 | 2189 ft | 27 kts | 90° |
| 2026-05-07 19:48 | 36.07828 | -115.13582 | 2191 ft | 25 kts | 90° |
| 2026-05-07 19:48 | 36.07827 | -115.13374 | 2190 ft | 23 kts | 90° |
| 2026-05-07 19:48 | 36.07828 | -115.13177 | 2187 ft | 22 kts | 90° |
| 2026-05-07 19:48 | 36.07828 | -115.12989 | 2191 ft | 22 kts | 89° |
| 2026-05-07 19:49 | 36.07829 | -115.12801 | 2189 ft | 23 kts | 90° |
| 2026-05-07 19:49 | 36.07828 | -115.12591 | 2188 ft | 26 kts | 90° |
| 2026-05-07 19:49 | 36.07829 | -115.12365 | 2190 ft | 25 kts | 90° |
| 2026-05-07 19:49 | 36.07806 | -115.12237 | 2188 ft | 10 kts | 128° |
| 2026-05-07 19:50 | 36.07762 | -115.12169 | 2187 ft | 10 kts | 129° |
| 2026-05-07 19:50 | 36.07754 | -115.12158 | 2187 ft | 0 kts | 131° |
| 2026-05-07 19:50 | 36.07745 | -115.12145 | 2188 ft | 6 kts | 135° |
| 2026-05-07 19:51 | 36.07689 | -115.12122 | 2189 ft | 11 kts | 182° |
| 2026-05-07 19:51 | 36.07643 | -115.12163 | 2189 ft | 8 kts | 265° |
| 2026-05-07 19:51 | 36.07643 | -115.12168 | 2189 ft | 0 kts | 268° |
| 2026-05-07 19:52 | 36.07643 | -115.12181 | 2189 ft | 11 kts | 269° |
| 2026-05-07 19:52 | 36.07642 | -115.12571 | 2188 ft | 80 kts | 270° |
| 2026-05-07 19:52 | 36.07641 | -115.13509 | 2192 ft | 139 kts | 270° |
| 2026-05-07 19:53 | 36.07645 | -115.14914 | 2265 ft | 181 kts | 271° |
| 2026-05-07 19:53 | 36.07655 | -115.16463 | 3002 ft | 181 kts | 271° |
| 2026-05-07 19:53 | 36.07670 | -115.18041 | 3644 ft | 187 kts | 270° |
| 2026-05-07 19:53 | 36.07658 | -115.19729 | 4137 ft | 203 kts | 269° |
| 2026-05-07 19:54 | 36.07542 | -115.21544 | 4454 ft | 223 kts | 261° |
| 2026-05-07 19:54 | 36.07211 | -115.23522 | 4630 ft | 244 kts | 248° |
| 2026-05-07 19:54 | 36.06326 | -115.25326 | 5011 ft | 253 kts | 229° |
| 2026-05-07 19:54 | 36.04977 | -115.26820 | 5296 ft | 271 kts | 205° |
| 2026-05-07 19:55 | 36.03192 | -115.27656 | 5938 ft | 277 kts | 199° |
| 2026-05-07 19:55 | 36.01370 | -115.28456 | 6709 ft | 279 kts | 200° |
| 2026-05-07 19:55 | 35.99531 | -115.29276 | 7432 ft | 282 kts | 200° |
| 2026-05-07 19:55 | 35.97620 | -115.29936 | 8029 ft | 288 kts | 193° |
| 2026-05-07 19:56 | 35.95634 | -115.30425 | 8731 ft | 292 kts | 192° |
| 2026-05-07 19:56 | 35.93620 | -115.30880 | 9486 ft | 296 kts | 192° |
| 2026-05-07 19:56 | 35.91609 | -115.31337 | 10198 ft | 299 kts | 192° |
| 2026-05-07 19:56 | 35.89503 | -115.31828 | 10484 ft | 320 kts | 192° |
| 2026-05-07 19:57 | 35.87243 | -115.32364 | 10667 ft | 341 kts | 192° |
| 2026-05-07 19:57 | 35.84864 | -115.32936 | 11082 ft | 353 kts | 192° |
| 2026-05-07 19:57 | 35.82436 | -115.33525 | 11708 ft | 357 kts | 192° |
| 2026-05-07 19:57 | 35.79984 | -115.34122 | 12376 ft | 360 kts | 191° |
| 2026-05-07 19:58 | 35.77515 | -115.34725 | 13059 ft | 364 kts | 191° |
| 2026-05-07 19:58 | 35.75021 | -115.35335 | 13756 ft | 367 kts | 191° |
| 2026-05-07 19:58 | 35.72494 | -115.35953 | 14361 ft | 372 kts | 191° |
| 2026-05-07 19:58 | 35.69945 | -115.36577 | 14987 ft | 376 kts | 190° |
| 2026-05-07 19:59 | 35.67364 | -115.37209 | 15614 ft | 380 kts | 191° |
| 2026-05-07 19:59 | 35.64758 | -115.37845 | 16249 ft | 384 kts | 190° |
| 2026-05-07 19:59 | 35.62121 | -115.38489 | 16895 ft | 388 kts | 190° |
| 2026-05-07 19:59 | 35.59423 | -115.38833 | 17496 ft | 392 kts | 177° |
| 2026-05-07 20:00 | 35.56690 | -115.38623 | 18148 ft | 395 kts | 174° |
| 2026-05-07 20:00 | 35.53963 | -115.38353 | 18684 ft | 400 kts | 174° |
| 2026-05-07 20:00 | 35.51175 | -115.38106 | 19228 ft | 404 kts | 175° |
| 2026-05-07 20:00 | 35.48352 | -115.37891 | 19777 ft | 407 kts | 175° |
| 2026-05-07 20:01 | 35.45497 | -115.37748 | 20317 ft | 412 kts | 182° |
| 2026-05-07 20:01 | 35.42670 | -115.38445 | 20810 ft | 418 kts | 202° |
| 2026-05-07 20:01 | 35.40048 | -115.40012 | 21404 ft | 420 kts | 208° |
| 2026-05-07 20:01 | 35.37494 | -115.41688 | 21916 ft | 424 kts | 209° |
| 2026-05-07 20:02 | 35.34886 | -115.43421 | 22412 ft | 428 kts | 209° |
| 2026-05-07 20:02 | 35.32254 | -115.45155 | 22910 ft | 432 kts | 208° |
| 2026-05-07 20:02 | 35.29585 | -115.46890 | 23424 ft | 435 kts | 208° |
| 2026-05-07 20:02 | 35.26894 | -115.48621 | 23878 ft | 438 kts | 208° |
| 2026-05-07 20:03 | 35.24180 | -115.50356 | 24304 ft | 441 kts | 208° |
| 2026-05-07 20:03 | 35.21453 | -115.52094 | 24714 ft | 443 kts | 208° |
| 2026-05-07 20:03 | 35.18701 | -115.53849 | 25116 ft | 446 kts | 208° |
| 2026-05-07 20:03 | 35.15936 | -115.55610 | 25516 ft | 449 kts | 208° |
| 2026-05-07 20:04 | 35.13199 | -115.57384 | 25986 ft | 449 kts | 211° |
| 2026-05-07 20:04 | 35.10760 | -115.59731 | 26509 ft | 445 kts | 227° |
| 2026-05-07 20:04 | 35.08639 | -115.62463 | 27122 ft | 442 kts | 229° |
| 2026-05-07 20:04 | 35.06556 | -115.65210 | 27643 ft | 441 kts | 229° |
| 2026-05-07 20:05 | 35.04460 | -115.67970 | 28027 ft | 444 kts | 229° |
| 2026-05-07 20:05 | 35.02334 | -115.70743 | 28007 ft | 451 kts | 228° |
| 2026-05-07 20:05 | 34.97923 | -115.76408 | 28035 ft | 468 kts | 227° |
| 2026-05-07 20:06 | 34.93371 | -115.82197 | 28025 ft | 483 kts | 227° |
| 2026-05-07 20:06 | 34.88649 | -115.88186 | 28017 ft | 495 kts | 227° |
| 2026-05-07 20:07 | 34.83816 | -115.94310 | 28006 ft | 505 kts | 227° |
| 2026-05-07 20:07 | 34.81376 | -115.97399 | 27990 ft | 505 kts | 227° |
| 2026-05-07 20:07 | 34.78938 | -116.00482 | 27994 ft | 504 kts | 227° |
| 2026-05-07 20:08 | 34.76537 | -116.03518 | 27984 ft | 504 kts | 227° |
| 2026-05-07 20:08 | 34.74106 | -116.06606 | 27991 ft | 506 kts | 227° |
| 2026-05-07 20:08 | 34.71661 | -116.09721 | 27998 ft | 509 kts | 227° |
| 2026-05-07 20:08 | 34.69209 | -116.12848 | 27995 ft | 510 kts | 227° |
| 2026-05-07 20:09 | 34.66762 | -116.15964 | 27979 ft | 510 kts | 227° |
| 2026-05-07 20:09 | 34.64310 | -116.19082 | 27995 ft | 510 kts | 227° |
| 2026-05-07 20:09 | 34.61933 | -116.22281 | 27995 ft | 508 kts | 232° |
| 2026-05-07 20:10 | 34.57644 | -116.29085 | 28015 ft | 507 kts | 235° |
| 2026-05-07 20:10 | 34.53472 | -116.35934 | 28005 ft | 507 kts | 234° |
| 2026-05-07 20:11 | 34.49208 | -116.42782 | 27728 ft | 505 kts | 234° |
| 2026-05-07 20:11 | 34.47111 | -116.46103 | 27562 ft | 486 kts | 234° |
| 2026-05-07 20:11 | 34.45050 | -116.49359 | 26803 ft | 486 kts | 234° |
| 2026-05-07 20:11 | 34.42992 | -116.52611 | 26261 ft | 488 kts | 234° |
| 2026-05-07 20:12 | 34.40941 | -116.55851 | 25781 ft | 491 kts | 234° |
| 2026-05-07 20:12 | 34.38866 | -116.59130 | 25285 ft | 489 kts | 234° |
| 2026-05-07 20:12 | 34.36799 | -116.62393 | 24802 ft | 484 kts | 233° |
| 2026-05-07 20:12 | 34.34754 | -116.65617 | 24316 ft | 481 kts | 233° |
| 2026-05-07 20:13 | 34.32812 | -116.68891 | 23818 ft | 477 kts | 240° |
| 2026-05-07 20:13 | 34.31287 | -116.72440 | 23256 ft | 474 kts | 246° |
| 2026-05-07 20:13 | 34.29907 | -116.76057 | 22668 ft | 472 kts | 247° |
| 2026-05-07 20:13 | 34.28548 | -116.79668 | 22128 ft | 469 kts | 246° |
| 2026-05-07 20:14 | 34.27192 | -116.83190 | 21601 ft | 465 kts | 246° |
| 2026-05-07 20:14 | 34.25800 | -116.86708 | 21097 ft | 462 kts | 245° |
| 2026-05-07 20:14 | 34.24400 | -116.90186 | 20592 ft | 459 kts | 245° |
| 2026-05-07 20:14 | 34.22999 | -116.93640 | 20100 ft | 457 kts | 245° |
| 2026-05-07 20:15 | 34.21605 | -116.97077 | 19589 ft | 454 kts | 245° |
| 2026-05-07 20:15 | 34.20338 | -117.00557 | 19095 ft | 450 kts | 251° |
| 2026-05-07 20:15 | 34.19362 | -117.04157 | 18600 ft | 447 kts | 255° |
| 2026-05-07 20:15 | 34.18493 | -117.07756 | 18059 ft | 444 kts | 255° |
| 2026-05-07 20:16 | 34.17606 | -117.11268 | 17542 ft | 441 kts | 253° |
| 2026-05-07 20:16 | 34.16668 | -117.14785 | 17043 ft | 437 kts | 253° |
| 2026-05-07 20:16 | 34.15719 | -117.18234 | 16551 ft | 430 kts | 252° |
| 2026-05-07 20:16 | 34.14781 | -117.21625 | 16116 ft | 423 kts | 252° |
| 2026-05-07 20:17 | 34.13851 | -117.24987 | 15664 ft | 420 kts | 252° |
| 2026-05-07 20:17 | 34.12929 | -117.28330 | 15216 ft | 417 kts | 252° |
| 2026-05-07 20:17 | 34.12016 | -117.31640 | 14774 ft | 415 kts | 252° |
| 2026-05-07 20:17 | 34.11106 | -117.34936 | 14346 ft | 412 kts | 252° |
| 2026-05-07 20:18 | 34.10207 | -117.38223 | 13914 ft | 410 kts | 253° |
| 2026-05-07 20:18 | 34.09389 | -117.41459 | 13440 ft | 408 kts | 254° |
| 2026-05-07 20:18 | 34.08585 | -117.44739 | 13002 ft | 405 kts | 254° |
| 2026-05-07 20:18 | 34.07787 | -117.47969 | 12596 ft | 393 kts | 254° |
| 2026-05-07 20:19 | 34.07013 | -117.51057 | 12212 ft | 375 kts | 254° |
| 2026-05-07 20:19 | 34.06263 | -117.53999 | 11862 ft | 359 kts | 254° |
| 2026-05-07 20:19 | 34.05550 | -117.56778 | 11518 ft | 344 kts | 254° |
| 2026-05-07 20:19 | 34.04853 | -117.59497 | 11203 ft | 334 kts | 254° |
| 2026-05-07 20:20 | 34.04174 | -117.62151 | 10899 ft | 330 kts | 255° |
| 2026-05-07 20:20 | 34.03499 | -117.64786 | 10595 ft | 326 kts | 255° |
| 2026-05-07 20:20 | 34.02833 | -117.67386 | 10287 ft | 323 kts | 255° |
| 2026-05-07 20:20 | 34.02187 | -117.69958 | 9984 ft | 315 kts | 258° |
| 2026-05-07 20:21 | 34.01926 | -117.71623 | 10064 ft | 297 kts | 265° |
| 2026-05-07 20:21 | 34.01703 | -117.74088 | 9463 ft | 299 kts | 267° |
| 2026-05-07 20:21 | 34.01518 | -117.76552 | 9050 ft | 293 kts | 266° |
| 2026-05-07 20:21 | 34.01310 | -117.78979 | 8716 ft | 285 kts | 265° |
| 2026-05-07 20:22 | 34.01088 | -117.81327 | 8379 ft | 279 kts | 265° |
| 2026-05-07 20:22 | 34.00864 | -117.83628 | 8053 ft | 274 kts | 265° |
| 2026-05-07 20:22 | 34.00641 | -117.85907 | 7746 ft | 273 kts | 264° |
| 2026-05-07 20:22 | 34.00418 | -117.88184 | 7437 ft | 274 kts | 264° |
| 2026-05-07 20:23 | 34.00194 | -117.90463 | 7124 ft | 272 kts | 264° |
| 2026-05-07 20:23 | 33.99978 | -117.92674 | 6802 ft | 266 kts | 264° |
| 2026-05-07 20:23 | 33.99764 | -117.94855 | 6526 ft | 259 kts | 264° |
| 2026-05-07 20:23 | 33.99555 | -117.96983 | 6232 ft | 252 kts | 264° |
| 2026-05-07 20:24 | 33.99351 | -117.99054 | 5958 ft | 245 kts | 264° |
| 2026-05-07 20:24 | 33.99167 | -118.01054 | 5662 ft | 235 kts | 265° |
| 2026-05-07 20:24 | 33.99028 | -118.02991 | 5358 ft | 228 kts | 265° |
| 2026-05-07 20:24 | 33.98860 | -118.04868 | 5056 ft | 223 kts | 264° |
| 2026-05-07 20:25 | 33.98680 | -118.06696 | 4799 ft | 217 kts | 263° |
| 2026-05-07 20:25 | 33.98497 | -118.08474 | 4573 ft | 212 kts | 263° |
| 2026-05-07 20:25 | 33.98314 | -118.10223 | 4361 ft | 214 kts | 263° |
| 2026-05-07 20:25 | 33.98124 | -118.12037 | 4145 ft | 219 kts | 263° |
| 2026-05-07 20:26 | 33.97933 | -118.13855 | 4025 ft | 218 kts | 264° |
| 2026-05-07 20:26 | 33.97743 | -118.15667 | 3985 ft | 219 kts | 263° |
| 2026-05-07 20:26 | 33.97553 | -118.17497 | 3754 ft | 217 kts | 263° |
| 2026-05-07 20:26 | 33.97370 | -118.19239 | 3490 ft | 201 kts | 264° |
| 2026-05-07 20:27 | 33.97205 | -118.20825 | 3248 ft | 186 kts | 264° |
| 2026-05-07 20:27 | 33.97052 | -118.22309 | 3062 ft | 169 kts | 263° |
| 2026-05-07 20:27 | 33.96911 | -118.23668 | 2801 ft | 158 kts | 263° |
| 2026-05-07 20:27 | 33.96776 | -118.24969 | 2613 ft | 157 kts | 263° |
| 2026-05-07 20:28 | 33.96641 | -118.26282 | 2405 ft | 158 kts | 263° |
| 2026-05-07 20:28 | 33.96506 | -118.27590 | 2195 ft | 156 kts | 263° |
| 2026-05-07 20:28 | 33.96373 | -118.28878 | 1994 ft | 154 kts | 262° |
| 2026-05-07 20:28 | 33.96241 | -118.30159 | 1789 ft | 154 kts | 262° |
| 2026-05-07 20:29 | 33.96109 | -118.31437 | 1585 ft | 153 kts | 262° |
| 2026-05-07 20:29 | 33.95979 | -118.32698 | 1391 ft | 151 kts | 262° |
| 2026-05-07 20:29 | 33.95850 | -118.33953 | 1187 ft | 151 kts | 262° |
| 2026-05-07 20:29 | 33.95722 | -118.35202 | 992 ft | 148 kts | 262° |
| 2026-05-07 20:30 | 33.95598 | -118.36402 | 779 ft | 144 kts | 263° |
| 2026-05-07 20:30 | 33.95478 | -118.37602 | 604 ft | 147 kts | 262° |
| 2026-05-07 20:30 | 33.95349 | -118.38862 | 389 ft | 153 kts | 263° |
| 2026-05-07 20:30 | 33.95221 | -118.40126 | 180 ft | 150 kts | 262° |
| 2026-05-07 20:31 | 33.95102 | -118.41278 | 121 ft | 122 kts | 263° |
| 2026-05-07 20:31 | 33.95023 | -118.42034 | 125 ft | 60 kts | 263° |
| 2026-05-07 20:31 | 33.94972 | -118.42429 | 123 ft | 44 kts | 254° |
| 2026-05-07 20:31 | 33.94868 | -118.42660 | 122 ft | 20 kts | 227° |
| 2026-05-07 20:32 | 33.94854 | -118.42678 | 124 ft | 0 kts | 226° |
| 2026-05-07 20:32 | 33.94847 | -118.42686 | 124 ft | 6 kts | 223° |
| 2026-05-07 20:32 | 33.94800 | -118.42734 | 123 ft | 11 kts | 216° |
| 2026-05-07 20:33 | 33.94684 | -118.42773 | 123 ft | 23 kts | 165° |
| 2026-05-07 20:33 | 33.94647 | -118.42592 | 122 ft | 28 kts | 85° |
| 2026-05-07 20:33 | 33.94670 | -118.42351 | 124 ft | 30 kts | 83° |
| 2026-05-07 20:33 | 33.94696 | -118.42100 | 125 ft | 30 kts | 83° |
| 2026-05-07 20:34 | 33.94723 | -118.41833 | 125 ft | 38 kts | 83° |
| 2026-05-07 20:34 | 33.94757 | -118.41517 | 125 ft | 38 kts | 82° |
| 2026-05-07 20:34 | 33.94803 | -118.41214 | 123 ft | 36 kts | 84° |
| 2026-05-07 20:34 | 33.94830 | -118.40926 | 123 ft | 34 kts | 83° |
| 2026-05-07 20:35 | 33.94858 | -118.40651 | 125 ft | 33 kts | 83° |
| 2026-05-07 20:35 | 33.94888 | -118.40385 | 123 ft | 31 kts | 85° |
| 2026-05-07 20:35 | 33.94776 | -118.40235 | 121 ft | 17 kts | 127° |
| 2026-05-07 20:35 | 33.94761 | -118.40200 | 123 ft | 0 kts | 110° |